Weather at Oseberg C Platform

Public forecast

Using degrees Celsius for public forecast. Weather courtesy of forecast.io.

Closest aviation weather report (METAR) to Oseberg C Platform

Closest report is Oseberg A Platform, 7.1 nm (13.2 km) SSE. Retrieved 2020/10/26 00:20 UTC (12 minutes ago):

ENOA 260020Z 19035KT 9999 SCT023 BKN120 11/06 Q0987 W///S5

Closest aviation forecast (TAF) to Oseberg C Platform

Closest forecast is Oseberg A Platform, 7.1 nm (13.2 km) SSE. Retrieved 2020-10-26 00:57 UTC (0 seconds ago):

TAF ENOA 252300Z 2600/2624 17035KT 9999 FEW020 SCT040 TEMPO 2609/2624 SHRA BKN014 SCT020CB BECMG 2612/2614 19025KT PROB30 TEMPO 2612/2624 TS BECMG 2618/2620 19015KT